Romulus, Michigan
Current Conditions -  °F | °C
As of 5:53 PM on Tuesday 25 Nov 2014 (Local Time) from KDTW Reporting Station
Overcast Overcast  
Wind Chill: 22°   Ceiling: 2500
Heat Index: 31°   Visibility: 10mi
Dew Point: 21°   Wind: 12mph
Humidity: 67%   Direction: 230°SW
Pressure: 30.15"   Gusts: NA
Location:  42.22°N, 83.38°W
Report Text: KDTW 252253Z 23010KT 10SM OVC025 M01/M06 A3015 RMK AO2 SLP215 T10061061
Loading
Personal Weather Stations






























Interactive Weather Map New forecast layout! Learn more

10-Day Weather Forecast

Advertisements
Track Severe Weather on mobile